createdAt,value
2023-02-23T00:02:05.054Z,97.47
2023-02-23T00:04:32.350Z,97.53
2023-02-23T00:06:59.433Z,97.39
2023-02-23T00:09:26.276Z,97.42
2023-02-23T00:11:56.225Z,97.06
2023-02-23T00:14:28.061Z,96.69
2023-02-23T00:16:56.542Z,96.58
2023-02-23T00:19:25.142Z,96.51
2023-02-23T00:21:53.935Z,96.96
2023-02-23T00:24:21.480Z,96.75
2023-02-23T00:26:51.654Z,96.42
2023-02-23T00:29:22.272Z,96.71
2023-02-23T00:31:51.671Z,96.79
2023-02-23T00:34:23.979Z,97.18
2023-02-23T00:36:55.601Z,97.07
2023-02-23T00:39:29.573Z,96.74
2023-02-23T00:42:03.463Z,96.72
2023-02-23T00:44:34.166Z,96.58
2023-02-23T00:47:02.196Z,96.37
2023-02-23T00:49:29.042Z,96.70
2023-02-23T00:51:55.826Z,96.93
2023-02-23T00:54:22.692Z,96.67
2023-02-23T00:56:50.125Z,96.92
2023-02-23T00:59:17.779Z,96.62
2023-02-23T01:01:45.209Z,96.75
2023-02-23T01:04:13.364Z,96.92
2023-02-23T01:06:41.941Z,96.70
2023-02-23T01:09:17.019Z,96.85
2023-02-23T01:11:47.194Z,96.87
2023-02-23T01:14:14.306Z,96.74
2023-02-23T01:16:41.125Z,96.44
2023-02-23T01:19:08.166Z,96.66
2023-02-23T01:21:39.125Z,96.19
2023-02-23T01:24:06.641Z,96.12
2023-02-23T01:26:37.223Z,96.13
2023-02-23T01:29:09.093Z,96.03
2023-02-23T01:31:39.490Z,96.13
2023-02-23T01:34:07.685Z,96.06
2023-02-23T01:36:39.110Z,96.33
2023-02-23T01:39:09.787Z,95.97
2023-02-23T01:41:37.228Z,95.77
2023-02-23T01:44:31.250Z,96.02
2023-02-23T01:46:58.530Z,96.22
2023-02-23T01:49:30.117Z,96.11
2023-02-23T01:52:08.112Z,96.04
2023-02-23T01:54:39.814Z,96.05
2023-02-23T01:57:12.239Z,96.47
2023-02-23T01:59:44.481Z,96.42
2023-02-23T02:02:13.510Z,96.98
2023-02-23T02:04:45.618Z,96.70
2023-02-23T02:07:16.433Z,96.53
2023-02-23T02:10:04.676Z,96.89
2023-02-23T02:12:31.499Z,96.52
2023-02-23T02:15:00.555Z,96.66
2023-02-23T02:18:03.527Z,96.60
2023-02-23T02:20:53.054Z,96.11
2023-02-23T02:23:46.022Z,96.29
2023-02-23T02:26:24.524Z,96.33
2023-02-23T02:29:42.682Z,96.60
2023-02-23T02:32:47.819Z,96.23
2023-02-23T02:35:31.309Z,96.01
2023-02-23T02:38:50.971Z,96.35
2023-02-23T02:41:31.040Z,96.05
2023-02-23T02:44:34.374Z,95.67
2023-02-23T02:47:19.563Z,95.88
2023-02-23T02:50:04.413Z,96.15
2023-02-23T02:52:50.095Z,96.36
2023-02-23T02:55:26.653Z,95.98
2023-02-23T02:57:58.529Z,96.66
2023-02-23T03:00:57.928Z,96.98
2023-02-23T03:03:56.507Z,97.16
2023-02-23T03:07:17.764Z,97.08
2023-02-23T03:10:16.126Z,97.23
2023-02-23T03:13:11.536Z,97.27
2023-02-23T03:16:29.654Z,97.58
2023-02-23T03:19:36.822Z,97.50
2023-02-23T03:22:40.798Z,97.64
2023-02-23T03:25:30.125Z,97.67
2023-02-23T03:28:44.590Z,98.04
2023-02-23T03:31:54.236Z,97.83
2023-02-23T03:35:16.964Z,97.79
2023-02-23T03:38:17.620Z,98.25
2023-02-23T03:41:07.317Z,98.13
2023-02-23T03:44:03.706Z,98.64
2023-02-23T03:46:51.149Z,98.26
2023-02-23T03:49:39.379Z,98.34
2023-02-23T03:52:33.927Z,98.58
2023-02-23T03:55:25.733Z,98.86
2023-02-23T03:58:16.976Z,98.49
2023-02-23T04:01:07.040Z,98.70
2023-02-23T04:03:58.515Z,98.82
2023-02-23T04:06:49.850Z,99.27
2023-02-23T04:09:35.365Z,99.28
2023-02-23T04:12:28.870Z,99.12
2023-02-23T04:15:10.992Z,99.79
2023-02-23T04:17:37.841Z,99.98
2023-02-23T04:20:07.199Z,99.53
2023-02-23T04:22:35.963Z,99.69
2023-02-23T04:25:02.964Z,99.96
2023-02-23T04:27:29.724Z,100.00
2023-02-23T04:29:56.546Z,99.97
2023-02-23T04:32:23.495Z,100.00
2023-02-23T04:34:50.884Z,99.89
2023-02-23T04:37:17.681Z,99.97
2023-02-23T04:39:48.652Z,99.83
2023-02-23T04:42:17.267Z,99.65
2023-02-23T04:44:44.715Z,99.55
2023-02-23T04:47:12.601Z,99.33
2023-02-23T04:49:39.367Z,99.31
2023-02-23T04:52:06.225Z,99.47
2023-02-23T04:54:33.358Z,99.45
2023-02-23T04:57:00.457Z,99.09
2023-02-23T04:59:27.356Z,99.24
2023-02-23T05:01:54.505Z,98.73
2023-02-23T05:04:21.469Z,98.57
2023-02-23T05:06:48.734Z,98.34
2023-02-23T05:09:15.860Z,98.42
2023-02-23T05:11:42.899Z,97.80
2023-02-23T05:14:10.404Z,97.82
2023-02-23T05:16:37.227Z,97.89
2023-02-23T05:19:04.199Z,97.98
2023-02-23T05:21:31.192Z,97.71
2023-02-23T05:23:58.084Z,97.89
2023-02-23T05:26:25.593Z,97.53
2023-02-23T05:28:52.581Z,96.90
2023-02-23T05:31:19.793Z,96.68
2023-02-23T05:33:47.111Z,95.94
2023-02-23T05:36:17.914Z,95.78
2023-02-23T05:38:46.764Z,95.52
2023-02-23T05:41:18.374Z,95.26
2023-02-23T05:43:45.802Z,94.80
2023-02-23T05:46:20.255Z,94.74
2023-02-23T05:48:47.546Z,94.64
2023-02-23T05:51:16.866Z,94.96
2023-02-23T05:53:45.255Z,94.79
2023-02-23T05:56:20.623Z,94.37
2023-02-23T05:58:55.780Z,94.51
2023-02-23T06:01:23.201Z,94.57
2023-02-23T06:03:50.979Z,94.63
2023-02-23T06:06:19.109Z,94.43
2023-02-23T06:08:46.225Z,94.32
2023-02-23T06:11:13.207Z,94.25
2023-02-23T06:13:40.481Z,94.52
2023-02-23T06:16:08.723Z,94.33
2023-02-23T06:18:36.341Z,94.66
2023-02-23T06:21:04.117Z,94.76
2023-02-23T06:23:32.740Z,94.59
2023-02-23T06:26:00.265Z,94.56
2023-02-23T06:28:29.209Z,94.43
2023-02-23T06:30:56.840Z,94.73
2023-02-23T06:33:24.339Z,94.69
2023-02-23T06:35:51.510Z,94.62
2023-02-23T06:38:19.001Z,95.32
2023-02-23T06:40:45.806Z,95.23
2023-02-23T06:43:12.713Z,95.14
2023-02-23T06:45:39.634Z,95.24
2023-02-23T06:48:07.056Z,95.50
2023-02-23T06:50:33.897Z,95.73
2023-02-23T06:53:00.932Z,95.73
2023-02-23T06:55:27.766Z,95.92
2023-02-23T06:57:54.707Z,96.04
2023-02-23T07:00:22.380Z,96.07
2023-02-23T07:02:49.208Z,96.22
2023-02-23T07:05:16.441Z,96.10
2023-02-23T07:07:43.476Z,95.99
2023-02-23T07:10:11.406Z,96.24
2023-02-23T07:12:38.252Z,95.86
2023-02-23T07:15:05.997Z,95.87
2023-02-23T07:17:32.791Z,95.88
2023-02-23T07:19:59.706Z,95.90
2023-02-23T07:22:29.539Z,96.12
2023-02-23T07:24:59.408Z,96.26
2023-02-23T07:27:27.760Z,96.16
2023-02-23T07:29:55.005Z,96.36
2023-02-23T07:32:22.277Z,96.34
2023-02-23T07:34:49.122Z,96.48
2023-02-23T07:37:17.352Z,96.67
2023-02-23T07:39:44.434Z,96.68
2023-02-23T07:42:11.304Z,96.46
2023-02-23T07:44:38.433Z,96.57
2023-02-23T07:47:07.128Z,96.64
2023-02-23T07:49:34.647Z,96.41
2023-02-23T07:52:01.780Z,96.29
2023-02-23T07:54:28.842Z,96.15
2023-02-23T07:56:55.780Z,96.03
2023-02-23T07:59:23.129Z,96.29
2023-02-23T08:01:49.937Z,96.40
2023-02-23T08:04:16.817Z,96.49
2023-02-23T08:06:43.672Z,96.48
2023-02-23T08:09:12.204Z,97.01
2023-02-23T08:11:39.382Z,97.73
2023-02-23T08:14:06.357Z,97.84
2023-02-23T08:16:34.580Z,97.36
2023-02-23T08:19:01.871Z,97.27
2023-02-23T08:21:29.821Z,96.50
2023-02-23T08:23:58.303Z,96.10
2023-02-23T08:26:25.769Z,95.39
2023-02-23T08:28:54.752Z,94.33
2023-02-23T08:31:24.905Z,94.04
2023-02-23T08:33:53.288Z,93.72
2023-02-23T08:36:21.063Z,93.25
2023-02-23T08:38:48.202Z,93.48
2023-02-23T08:41:15.471Z,93.08
2023-02-23T08:43:44.071Z,91.89
2023-02-23T08:46:11.645Z,91.75
2023-02-23T08:48:40.665Z,90.97
2023-02-23T08:51:08.850Z,90.81
2023-02-23T08:53:36.122Z,90.21
2023-02-23T08:56:06.638Z,89.85
2023-02-23T08:58:35.575Z,89.51
2023-02-23T09:01:03.574Z,88.90
2023-02-23T09:03:31.516Z,88.58
2023-02-23T09:06:07.789Z,88.13
2023-02-23T09:08:34.778Z,88.14
2023-02-23T09:11:01.643Z,88.02
2023-02-23T09:13:28.452Z,87.91
2023-02-23T09:15:55.614Z,87.92
2023-02-23T09:18:28.009Z,87.47
2023-02-23T09:20:55.339Z,87.23
2023-02-23T09:23:24.447Z,87.84
2023-02-23T09:25:51.261Z,87.74
2023-02-23T09:28:20.640Z,88.30
2023-02-23T09:30:48.445Z,87.83
2023-02-23T09:33:15.508Z,87.47
2023-02-23T09:35:44.617Z,87.12
2023-02-23T09:38:11.392Z,87.52
2023-02-23T09:40:56.867Z,88.18
2023-02-23T09:43:43.406Z,87.67
2023-02-23T09:46:38.140Z,87.20
2023-02-23T09:49:13.907Z,86.76
2023-02-23T09:51:46.567Z,86.92
2023-02-23T09:54:16.590Z,86.98
2023-02-23T09:56:51.305Z,87.05
2023-02-23T09:59:21.140Z,87.15
2023-02-23T10:02:19.453Z,86.75
2023-02-23T10:05:05.992Z,84.79
2023-02-23T10:08:35.483Z,83.90
2023-02-23T10:11:44.451Z,79.57
2023-02-23T10:14:26.425Z,80.35
2023-02-23T10:17:05.333Z,79.70
2023-02-23T10:20:00.126Z,78.60
2023-02-23T10:22:29.163Z,76.67
2023-02-23T10:25:13.103Z,75.05
2023-02-23T10:27:49.436Z,77.16
2023-02-23T10:30:32.618Z,76.33
2023-02-23T10:33:42.236Z,75.06
2023-02-23T10:36:19.410Z,75.04
2023-02-23T10:38:47.579Z,73.52
2023-02-23T10:41:15.117Z,73.78
2023-02-23T10:43:42.399Z,74.13
2023-02-23T10:46:21.953Z,74.55
2023-02-23T10:48:51.540Z,74.03
2023-02-23T10:51:26.326Z,72.48
2023-02-23T10:53:53.228Z,71.97
2023-02-23T10:56:22.702Z,72.15
2023-02-23T10:58:55.403Z,71.96
2023-02-23T11:02:00.479Z,72.24
2023-02-23T11:04:32.032Z,71.65
2023-02-23T11:07:24.433Z,71.26
2023-02-23T11:09:53.110Z,70.97
2023-02-23T11:12:29.772Z,70.85
2023-02-23T11:14:58.864Z,70.82
2023-02-23T11:17:37.396Z,71.67
2023-02-23T11:20:23.627Z,70.97
2023-02-23T11:22:52.445Z,69.83
2023-02-23T11:25:31.160Z,69.36
2023-02-23T11:27:59.193Z,70.19
2023-02-23T11:30:37.410Z,69.62
2023-02-23T11:33:11.458Z,68.04
2023-02-23T11:35:38.746Z,68.92
2023-02-23T11:38:23.631Z,69.52
2023-02-23T11:41:00.578Z,70.15
2023-02-23T11:43:27.917Z,70.25
2023-02-23T11:45:58.556Z,69.81
2023-02-23T11:48:33.522Z,69.11
2023-02-23T11:51:01.077Z,69.28
2023-02-23T11:53:45.430Z,68.89
2023-02-23T11:56:12.790Z,67.74
2023-02-23T11:58:54.469Z,66.64
2023-02-23T12:01:45.506Z,66.31
2023-02-23T12:04:39.772Z,65.48
2023-02-23T12:07:44.119Z,65.79
2023-02-23T12:10:31.942Z,66.23
2023-02-23T12:13:23.147Z,63.73
2023-02-23T12:16:21.763Z,63.73
2023-02-23T12:19:03.869Z,63.67
2023-02-23T12:21:47.657Z,62.10
2023-02-23T12:24:23.408Z,62.55
2023-02-23T12:27:01.858Z,62.93
2023-02-23T12:30:25.667Z,63.45
2023-02-23T12:32:56.448Z,62.10
2023-02-23T12:35:37.224Z,61.62
2023-02-23T12:38:18.234Z,62.95
2023-02-23T12:40:45.269Z,62.58
2023-02-23T12:43:22.012Z,62.18
2023-02-23T12:45:55.829Z,61.37
2023-02-23T12:48:56.740Z,60.59
2023-02-23T12:51:43.575Z,60.34
2023-02-23T12:54:13.262Z,60.76
2023-02-23T12:57:08.524Z,61.78
2023-02-23T13:00:01.415Z,62.65
2023-02-23T13:02:47.776Z,62.73
2023-02-23T13:05:29.416Z,63.76
2023-02-23T13:08:13.055Z,62.65
2023-02-23T13:10:50.005Z,62.16
2023-02-23T13:13:31.072Z,61.92
2023-02-23T13:16:09.738Z,61.88
2023-02-23T13:18:52.532Z,61.58
2023-02-23T13:22:39.428Z,60.14
2023-02-23T13:25:34.107Z,59.29
2023-02-23T13:28:03.142Z,59.91
2023-02-23T13:30:35.657Z,60.25
2023-02-23T13:33:38.443Z,59.04
2023-02-23T13:36:13.109Z,59.22
2023-02-23T13:39:20.248Z,60.39
2023-02-23T13:42:26.474Z,59.38
2023-02-23T13:45:02.114Z,60.14
2023-02-23T13:47:35.201Z,60.08
2023-02-23T13:50:46.814Z,58.78
2023-02-23T13:53:47.159Z,59.39
2023-02-23T13:56:22.735Z,59.45
2023-02-23T13:58:59.775Z,59.15
2023-02-23T14:01:33.354Z,59.24
2023-02-23T14:04:05.229Z,58.24
2023-02-23T14:06:34.677Z,57.66
2023-02-23T14:09:12.379Z,58.08
2023-02-23T14:11:44.655Z,57.97
2023-02-23T14:14:31.867Z,57.67
2023-02-23T14:17:18.167Z,57.20
2023-02-23T14:20:20.980Z,53.77
2023-02-23T14:23:17.447Z,53.24
2023-02-23T14:25:46.836Z,53.42
2023-02-23T14:28:31.277Z,54.11
2023-02-23T14:31:13.610Z,53.70
2023-02-23T14:33:43.327Z,54.08
2023-02-23T14:36:22.272Z,52.88
2023-02-23T14:39:00.938Z,51.62
2023-02-23T14:41:57.764Z,51.91
2023-02-23T14:44:34.660Z,51.94
2023-02-23T14:47:08.523Z,52.60
2023-02-23T14:50:00.644Z,53.50
2023-02-23T14:52:33.120Z,53.15
2023-02-23T14:55:09.567Z,53.98
2023-02-23T14:57:38.317Z,53.76
2023-02-23T15:00:23.637Z,53.10
2023-02-23T15:02:55.510Z,50.60
2023-02-23T15:05:34.002Z,50.93
2023-02-23T15:08:07.205Z,51.89
2023-02-23T15:10:43.578Z,51.00
2023-02-23T15:13:51.715Z,49.26
2023-02-23T15:16:29.301Z,48.80
2023-02-23T15:18:59.444Z,49.50
2023-02-23T15:21:26.841Z,49.35
2023-02-23T15:24:05.296Z,50.17
2023-02-23T15:26:38.425Z,50.77
2023-02-23T15:29:13.088Z,51.08
2023-02-23T15:31:41.294Z,51.42
2023-02-23T15:34:11.294Z,51.78
2023-02-23T15:36:41.467Z,52.79
2023-02-23T15:39:16.824Z,53.98
2023-02-23T15:41:48.906Z,54.93
2023-02-23T15:44:29.756Z,55.29
2023-02-23T15:47:13.643Z,56.08
2023-02-23T15:49:42.251Z,56.15
2023-02-23T15:52:25.089Z,55.77
2023-02-23T15:55:01.710Z,55.84
2023-02-23T15:57:55.454Z,56.33
2023-02-23T16:00:59.051Z,56.06
2023-02-23T16:03:31.940Z,56.52
2023-02-23T16:06:25.635Z,57.01
2023-02-23T16:09:21.402Z,57.05
2023-02-23T16:12:05.697Z,57.29
2023-02-23T16:14:48.772Z,57.11
2023-02-23T16:17:39.160Z,56.73
2023-02-23T16:20:29.428Z,56.22
2023-02-23T16:22:58.244Z,56.33
2023-02-23T16:25:28.497Z,56.26
2023-02-23T16:28:05.840Z,56.40
2023-02-23T16:30:32.800Z,55.36
2023-02-23T16:33:13.889Z,54.11
2023-02-23T16:35:52.465Z,54.56
2023-02-23T16:38:26.446Z,54.86
2023-02-23T16:40:53.791Z,55.33
2023-02-23T16:43:21.625Z,55.29
2023-02-23T16:45:48.780Z,56.28
2023-02-23T16:48:17.715Z,56.27
2023-02-23T16:50:45.914Z,56.08
2023-02-23T16:53:13.819Z,56.53
2023-02-23T16:55:48.921Z,56.68
2023-02-23T16:58:21.246Z,57.53
2023-02-23T17:00:48.445Z,57.94
2023-02-23T17:03:23.942Z,57.91
2023-02-23T17:05:51.503Z,58.42
2023-02-23T17:08:18.738Z,58.30
2023-02-23T17:10:54.530Z,58.77
2023-02-23T17:13:25.463Z,59.36
2023-02-23T17:15:56.619Z,59.43
2023-02-23T17:18:30.719Z,59.44
2023-02-23T17:21:01.390Z,59.76
2023-02-23T17:23:38.564Z,59.80
2023-02-23T17:26:11.776Z,59.86
2023-02-23T17:28:39.746Z,60.12
2023-02-23T17:31:08.238Z,60.39
2023-02-23T17:33:37.586Z,60.18
2023-02-23T17:36:08.803Z,60.71
2023-02-23T17:38:36.498Z,61.05
2023-02-23T17:41:15.216Z,61.60
2023-02-23T17:43:42.545Z,62.00
2023-02-23T17:46:10.412Z,62.13
2023-02-23T17:48:37.447Z,62.79
2023-02-23T17:51:09.214Z,62.76
2023-02-23T17:53:36.542Z,63.25
2023-02-23T17:56:03.740Z,63.23
2023-02-23T17:58:30.892Z,63.42
2023-02-23T18:01:01.128Z,63.56
2023-02-23T18:03:32.247Z,63.49
2023-02-23T18:06:05.651Z,63.67
2023-02-23T18:08:33.791Z,63.53
2023-02-23T18:11:00.850Z,63.62
2023-02-23T18:13:29.966Z,63.56
2023-02-23T18:16:04.203Z,63.09
2023-02-23T18:18:31.230Z,63.25
2023-02-23T18:21:00.640Z,63.22
2023-02-23T18:23:30.659Z,63.18
2023-02-23T18:26:07.510Z,63.41
2023-02-23T18:28:35.284Z,63.09
2023-02-23T18:31:02.967Z,63.18
2023-02-23T18:33:31.580Z,63.26
2023-02-23T18:35:59.546Z,63.52
2023-02-23T18:38:26.344Z,63.68
2023-02-23T18:40:53.548Z,63.77
2023-02-23T18:43:20.628Z,63.85
2023-02-23T18:45:47.403Z,64.36
2023-02-23T18:48:15.561Z,64.55
2023-02-23T18:50:42.439Z,65.05
2023-02-23T18:53:11.037Z,65.07
2023-02-23T18:55:38.723Z,65.51
2023-02-23T18:58:06.061Z,65.67
2023-02-23T19:00:40.324Z,65.82
2023-02-23T19:03:07.641Z,66.05
2023-02-23T19:05:36.642Z,66.12
2023-02-23T19:08:10.374Z,66.18
2023-02-23T19:10:37.180Z,66.41
2023-02-23T19:13:08.987Z,66.47
2023-02-23T19:15:36.645Z,67.03
2023-02-23T19:18:04.282Z,67.38
2023-02-23T19:20:36.006Z,67.61
2023-02-23T19:23:04.174Z,67.93
2023-02-23T19:25:32.740Z,68.32
2023-02-23T19:27:59.832Z,68.57
2023-02-23T19:30:26.702Z,68.76
2023-02-23T19:32:53.825Z,69.50
2023-02-23T19:35:20.968Z,69.43
2023-02-23T19:37:53.036Z,69.55
2023-02-23T19:40:24.047Z,69.90
2023-02-23T19:42:52.981Z,70.89
2023-02-23T19:45:20.264Z,70.95
2023-02-23T19:47:47.598Z,70.60
2023-02-23T19:50:19.173Z,70.66
2023-02-23T19:52:49.293Z,70.68
2023-02-23T19:55:16.239Z,71.00
2023-02-23T19:57:43.244Z,71.00
2023-02-23T20:00:12.321Z,71.27
2023-02-23T20:02:45.113Z,71.90
2023-02-23T20:05:15.690Z,71.94
2023-02-23T20:07:43.405Z,71.64
2023-02-23T20:10:16.728Z,72.44
2023-02-23T20:12:44.247Z,73.73
2023-02-23T20:15:11.327Z,73.18
2023-02-23T20:17:40.252Z,73.76
2023-02-23T20:20:10.460Z,73.59
2023-02-23T20:22:41.536Z,73.34
2023-02-23T20:25:12.832Z,73.84
2023-02-23T20:27:39.837Z,74.37
2023-02-23T20:30:07.699Z,74.40
2023-02-23T20:32:35.048Z,74.87
2023-02-23T20:35:02.439Z,75.17
2023-02-23T20:37:30.385Z,75.34
2023-02-23T20:39:59.312Z,75.57
2023-02-23T20:42:29.651Z,76.27
2023-02-23T20:44:58.531Z,75.39
2023-02-23T20:47:25.959Z,76.47
2023-02-23T20:49:53.004Z,76.37
2023-02-23T20:52:19.914Z,76.79
2023-02-23T20:54:46.697Z,77.29
2023-02-23T20:57:13.721Z,77.10
2023-02-23T20:59:40.705Z,76.64
2023-02-23T21:02:09.195Z,79.04
2023-02-23T21:04:38.197Z,78.84
2023-02-23T21:07:06.010Z,79.50
2023-02-23T21:09:33.041Z,78.59
2023-02-23T21:11:59.928Z,78.53
2023-02-23T21:14:26.959Z,79.27
2023-02-23T21:16:53.808Z,78.92
2023-02-23T21:19:21.279Z,79.22
2023-02-23T21:21:51.417Z,78.69
2023-02-23T21:24:19.560Z,79.16
2023-02-23T21:26:46.734Z,78.21
2023-02-23T21:29:15.112Z,78.41
2023-02-23T21:31:46.977Z,78.57
2023-02-23T21:34:18.929Z,78.53
2023-02-23T21:36:46.653Z,78.85
2023-02-23T21:39:14.857Z,78.62
2023-02-23T21:41:41.950Z,80.11
2023-02-23T21:44:09.414Z,79.03
2023-02-23T21:46:36.934Z,80.41
2023-02-23T21:49:07.370Z,79.47
2023-02-23T21:51:35.088Z,79.74
2023-02-23T21:54:02.981Z,80.56
2023-02-23T21:56:29.899Z,80.08
2023-02-23T21:58:57.054Z,80.10
2023-02-23T22:01:28.541Z,80.72
2023-02-23T22:03:57.045Z,79.86
2023-02-23T22:06:31.219Z,80.05
2023-02-23T22:08:58.787Z,80.73
2023-02-23T22:11:28.651Z,81.07
2023-02-23T22:14:00.048Z,80.51
2023-02-23T22:16:35.974Z,81.35
2023-02-23T22:19:04.477Z,81.46
2023-02-23T22:21:38.818Z,80.82
2023-02-23T22:24:07.335Z,80.39
2023-02-23T22:26:41.897Z,81.25
2023-02-23T22:29:11.798Z,80.53
2023-02-23T22:31:39.790Z,80.54
2023-02-23T22:34:07.391Z,80.17
2023-02-23T22:36:34.963Z,80.13
2023-02-23T22:39:07.201Z,80.23
2023-02-23T22:41:42.400Z,80.23
2023-02-23T22:44:18.953Z,79.77
2023-02-23T22:46:48.495Z,79.96
2023-02-23T22:49:16.582Z,79.89
2023-02-23T22:51:44.309Z,80.14
2023-02-23T22:54:15.653Z,80.41
2023-02-23T22:56:42.883Z,80.50
2023-02-23T22:59:11.177Z,80.25
2023-02-23T23:01:39.886Z,80.22
2023-02-23T23:04:10.781Z,79.96
2023-02-23T23:06:41.666Z,80.52
2023-02-23T23:09:16.756Z,80.61
2023-02-23T23:11:44.367Z,80.77
2023-02-23T23:14:12.446Z,80.71
2023-02-23T23:16:48.260Z,80.79
2023-02-23T23:19:24.471Z,80.16
2023-02-23T23:21:55.574Z,80.50
2023-02-23T23:24:25.018Z,80.42
2023-02-23T23:27:00.856Z,80.27
2023-02-23T23:29:32.693Z,80.23
2023-02-23T23:32:01.904Z,80.48
2023-02-23T23:34:28.794Z,80.95
2023-02-23T23:36:56.874Z,81.31
2023-02-23T23:39:26.282Z,81.00
2023-02-23T23:41:54.000Z,81.05
2023-02-23T23:44:25.170Z,81.00
2023-02-23T23:46:53.053Z,81.24
2023-02-23T23:49:25.685Z,81.46
2023-02-23T23:51:56.762Z,81.21
2023-02-23T23:54:27.754Z,81.27
2023-02-23T23:56:55.334Z,81.17
2023-02-23T23:59:26.185Z,81.07
